createdAt,value
2022-12-29T00:01:16.139Z,995.5
2022-12-29T00:02:32.403Z,995.5
2022-12-29T00:03:48.679Z,995.5
2022-12-29T00:05:05.016Z,995.5
2022-12-29T00:06:21.304Z,995.4
2022-12-29T00:07:37.606Z,995.5
2022-12-29T00:08:52.867Z,995.4
2022-12-29T00:10:09.163Z,995.5
2022-12-29T00:11:25.457Z,995.4
2022-12-29T00:12:41.786Z,995.5
2022-12-29T00:13:58.082Z,995.5
2022-12-29T00:15:14.371Z,995.4
2022-12-29T00:16:30.631Z,995.4
2022-12-29T00:17:46.957Z,995.4
2022-12-29T00:19:03.251Z,995.4
2022-12-29T00:20:19.540Z,995.3
2022-12-29T00:21:35.833Z,995.4
2022-12-29T00:22:52.130Z,995.3
2022-12-29T00:24:08.429Z,995.3
2022-12-29T00:25:23.704Z,995.5
2022-12-29T00:26:39.991Z,995.4
2022-12-29T00:27:56.317Z,995.4
2022-12-29T00:29:12.612Z,995.4
2022-12-29T00:30:28.876Z,995.4
2022-12-29T00:31:45.199Z,995.4
2022-12-29T00:33:01.467Z,995.3
2022-12-29T00:34:17.761Z,995.3
2022-12-29T00:35:34.043Z,995.3
2022-12-29T00:36:50.336Z,995.4
2022-12-29T00:38:06.665Z,995.3
2022-12-29T00:39:22.928Z,995.3
2022-12-29T00:40:39.218Z,995.3
2022-12-29T00:41:54.570Z,995.3
2022-12-29T00:43:10.856Z,995.2
2022-12-29T00:44:27.154Z,995.2
2022-12-29T00:45:43.406Z,995.1
2022-12-29T00:46:59.738Z,995.2
2022-12-29T00:48:16.025Z,995.2
2022-12-29T00:49:32.299Z,995.2
2022-12-29T00:50:48.616Z,995.3
2022-12-29T00:52:04.917Z,995.2
2022-12-29T00:53:21.180Z,995.3
2022-12-29T00:54:37.461Z,995.2
2022-12-29T00:55:53.760Z,995.2
2022-12-29T00:57:10.048Z,995.2
2022-12-29T00:58:25.361Z,995.2
2022-12-29T00:59:41.689Z,995.1
2022-12-29T01:00:57.942Z,995.1
2022-12-29T01:02:14.281Z,995.2
2022-12-29T01:03:30.573Z,995.2
2022-12-29T01:04:46.865Z,995.1
2022-12-29T01:06:03.127Z,995.2
2022-12-29T01:07:19.448Z,995.2
2022-12-29T01:08:35.721Z,995.1
2022-12-29T01:09:52.033Z,995.2
2022-12-29T01:11:08.293Z,995.2
2022-12-29T01:12:24.591Z,995.2
2022-12-29T01:13:40.895Z,995.2
2022-12-29T01:14:56.233Z,995.2
2022-12-29T01:16:12.481Z,995.2
2022-12-29T01:17:28.807Z,995.2
2022-12-29T01:18:45.085Z,995.1
2022-12-29T01:20:01.366Z,995.2
2022-12-29T01:21:17.659Z,995.1
2022-12-29T01:22:33.994Z,995.2
2022-12-29T01:23:50.240Z,995.2
2022-12-29T01:25:06.535Z,995.3
2022-12-29T01:26:22.833Z,995.3
2022-12-29T01:27:39.163Z,995.2
2022-12-29T01:28:55.420Z,995.2
2022-12-29T01:30:11.750Z,995.2
2022-12-29T01:31:27.017Z,995.2
2022-12-29T01:32:43.313Z,995.2
2022-12-29T01:33:59.605Z,995.1
2022-12-29T01:35:15.930Z,995.1
2022-12-29T01:36:32.233Z,995.1
2022-12-29T01:37:48.531Z,995.1
2022-12-29T01:39:04.791Z,995
2022-12-29T01:40:21.081Z,995.2
2022-12-29T01:41:37.367Z,995.1
2022-12-29T01:42:53.669Z,995.1
2022-12-29T01:44:09.956Z,995.2
2022-12-29T01:45:26.281Z,995.2
2022-12-29T01:46:42.553Z,995.2
2022-12-29T01:47:57.890Z,995.2
2022-12-29T01:49:14.179Z,995.1
2022-12-29T01:50:30.471Z,995.1
2022-12-29T01:51:46.740Z,995.1
2022-12-29T01:53:03.071Z,995.1
2022-12-29T01:54:19.315Z,995
2022-12-29T01:55:35.645Z,995
2022-12-29T01:56:51.913Z,995
2022-12-29T01:58:08.197Z,995
2022-12-29T01:59:24.498Z,995.1
2022-12-29T02:00:40.819Z,995
2022-12-29T02:01:57.086Z,995
2022-12-29T02:03:13.412Z,995
2022-12-29T02:04:29.676Z,995
2022-12-29T02:05:44.989Z,994.9
2022-12-29T02:07:01.284Z,994.9
2022-12-29T02:08:17.560Z,995
2022-12-29T02:09:33.859Z,995
2022-12-29T02:10:50.158Z,994.9
2022-12-29T02:12:06.483Z,994.9
2022-12-29T02:13:22.766Z,994.9
2022-12-29T02:14:39.064Z,994.9
2022-12-29T02:15:55.354Z,994.9
2022-12-29T02:17:11.647Z,994.9
2022-12-29T02:18:27.905Z,994.9
2022-12-29T02:19:44.204Z,994.9
2022-12-29T02:21:00.529Z,994.9
2022-12-29T02:22:15.841Z,994.9
2022-12-29T02:23:32.137Z,995
2022-12-29T02:24:48.397Z,994.9
2022-12-29T02:26:04.718Z,994.9
2022-12-29T02:27:20.976Z,994.8
2022-12-29T02:28:37.312Z,994.9
2022-12-29T02:29:53.564Z,994.9
2022-12-29T02:31:09.891Z,994.9
2022-12-29T02:32:26.149Z,994.9
2022-12-29T02:33:42.443Z,994.9
2022-12-29T02:34:58.744Z,994.8
2022-12-29T02:36:15.040Z,994.8
2022-12-29T02:37:31.333Z,994.8
2022-12-29T02:38:46.667Z,994.9
2022-12-29T02:40:02.959Z,994.8
2022-12-29T02:41:19.238Z,994.8
2022-12-29T02:42:35.560Z,994.8
2022-12-29T02:43:51.808Z,994.8
2022-12-29T02:45:08.114Z,994.7
2022-12-29T02:46:24.395Z,994.7
2022-12-29T02:47:40.737Z,994.7
2022-12-29T02:48:56.989Z,994.7
2022-12-29T02:50:13.305Z,994.6
2022-12-29T02:51:29.575Z,994.6
2022-12-29T02:52:45.901Z,994.5
2022-12-29T02:54:02.156Z,994.5
2022-12-29T02:55:17.469Z,994.5
2022-12-29T02:56:33.764Z,994.4
2022-12-29T02:57:50.062Z,994.4
2022-12-29T02:59:06.351Z,994.4
2022-12-29T03:00:22.651Z,994.5
2022-12-29T03:01:37.988Z,994.4
2022-12-29T03:02:54.241Z,994.4
2022-12-29T03:04:10.571Z,994.4
2022-12-29T03:05:26.840Z,994.3
2022-12-29T03:06:43.122Z,994.2
2022-12-29T03:07:59.451Z,994.2
2022-12-29T03:09:15.748Z,994.1
2022-12-29T03:10:32.011Z,994.1
2022-12-29T03:11:48.306Z,994
2022-12-29T03:13:04.607Z,993.9
2022-12-29T03:14:20.919Z,993.9
2022-12-29T03:15:37.189Z,994
2022-12-29T03:16:53.471Z,993.9
2022-12-29T03:18:08.793Z,994
2022-12-29T03:19:25.113Z,993.9
2022-12-29T03:20:41.410Z,994
2022-12-29T03:21:57.667Z,993.9
2022-12-29T03:23:13.996Z,993.8
2022-12-29T03:24:30.292Z,993.8
2022-12-29T03:25:46.592Z,993.8
2022-12-29T03:27:02.878Z,993.8
2022-12-29T03:28:19.136Z,993.8
2022-12-29T03:29:35.427Z,993.9
2022-12-29T03:30:51.763Z,993.9
2022-12-29T03:32:08.055Z,994
2022-12-29T03:33:24.323Z,994
2022-12-29T03:34:39.654Z,994
2022-12-29T03:35:55.931Z,994
2022-12-29T03:37:12.244Z,994
2022-12-29T03:38:28.533Z,994
2022-12-29T03:39:44.833Z,994.1
2022-12-29T03:41:01.091Z,993.9
2022-12-29T03:42:17.424Z,994
2022-12-29T03:43:33.684Z,994
2022-12-29T03:44:50.011Z,994.2
2022-12-29T03:46:06.299Z,994.1
2022-12-29T03:47:22.592Z,994.2
2022-12-29T03:48:38.864Z,994.3
2022-12-29T03:49:55.182Z,994.3
2022-12-29T03:51:10.454Z,994.3
2022-12-29T03:52:26.799Z,994.3
2022-12-29T03:53:43.056Z,994.2
2022-12-29T03:54:59.351Z,994.2
2022-12-29T03:56:15.630Z,994.2
2022-12-29T03:57:31.958Z,994.2
2022-12-29T03:58:48.257Z,994.3
2022-12-29T04:00:04.514Z,994.4
2022-12-29T04:01:20.839Z,994.4
2022-12-29T04:02:37.096Z,994.5
2022-12-29T04:03:53.399Z,994.4
2022-12-29T04:05:09.688Z,994.4
2022-12-29T04:06:25.979Z,994.4
2022-12-29T04:07:41.327Z,994.5
2022-12-29T04:08:57.617Z,994.6
2022-12-29T04:10:13.913Z,994.6
2022-12-29T04:11:30.189Z,994.6
2022-12-29T04:12:46.464Z,994.6
2022-12-29T04:14:02.773Z,994.6
2022-12-29T04:15:19.053Z,994.7
2022-12-29T04:16:35.350Z,994.7
2022-12-29T04:17:51.678Z,994.7
2022-12-29T04:19:07.975Z,994.7
2022-12-29T04:20:24.229Z,994.8
2022-12-29T04:21:40.536Z,994.8
2022-12-29T04:22:56.851Z,994.8
2022-12-29T04:24:12.128Z,994.8
2022-12-29T04:25:28.456Z,994.8
2022-12-29T04:26:44.748Z,994.8
2022-12-29T04:28:01.012Z,994.8
2022-12-29T04:29:17.313Z,994.8
2022-12-29T04:30:33.634Z,994.8
2022-12-29T04:31:49.898Z,994.8
2022-12-29T04:33:06.230Z,994.8
2022-12-29T04:34:22.512Z,994.8
2022-12-29T04:35:38.820Z,994.8
2022-12-29T04:36:55.078Z,994.8
2022-12-29T04:38:11.400Z,994.7
2022-12-29T04:39:27.669Z,994.7
2022-12-29T04:40:42.959Z,994.7
2022-12-29T04:41:59.257Z,994.7
2022-12-29T04:43:15.549Z,994.7
2022-12-29T04:44:31.843Z,994.7
2022-12-29T04:45:48.179Z,994.7
2022-12-29T04:47:04.434Z,994.7
2022-12-29T04:48:20.734Z,994.7
2022-12-29T04:49:37.020Z,994.7
2022-12-29T04:50:53.314Z,994.6
2022-12-29T04:52:09.610Z,994.6
2022-12-29T04:53:25.901Z,994.6
2022-12-29T04:54:42.198Z,994.6
2022-12-29T04:55:58.523Z,994.5
2022-12-29T04:57:13.797Z,994.5
2022-12-29T04:58:30.135Z,994.5
2022-12-29T04:59:46.388Z,994.5
2022-12-29T05:01:02.719Z,994.5
2022-12-29T05:03:35.272Z,994.5
2022-12-29T05:04:51.600Z,994.4
2022-12-29T05:06:07.898Z,994.4
2022-12-29T05:07:24.153Z,994.4
2022-12-29T05:08:40.489Z,994.4
2022-12-29T05:09:56.753Z,994.5
2022-12-29T05:11:13.047Z,994.4
2022-12-29T05:12:29.368Z,994.3
2022-12-29T05:13:45.751Z,994.3
2022-12-29T05:15:02.053Z,994.3
2022-12-29T05:16:18.366Z,994.3
2022-12-29T05:17:34.630Z,994.3
2022-12-29T05:18:50.918Z,994.2
2022-12-29T05:20:07.214Z,994.3
2022-12-29T05:21:23.518Z,994.4
2022-12-29T05:23:56.130Z,994.3
2022-12-29T05:25:12.425Z,994.3
2022-12-29T05:26:28.732Z,994.3
2022-12-29T05:27:44.984Z,994.3
2022-12-29T05:29:01.280Z,994.2
2022-12-29T05:30:16.596Z,994.3
2022-12-29T05:31:32.878Z,994.2
2022-12-29T05:32:49.166Z,994.3
2022-12-29T05:34:05.475Z,994.2
2022-12-29T05:35:21.759Z,994.2
2022-12-29T05:36:38.079Z,994.1
2022-12-29T05:37:54.340Z,994.2
2022-12-29T05:39:10.658Z,994.2
2022-12-29T05:40:26.931Z,994.2
2022-12-29T05:41:43.223Z,994.2
2022-12-29T05:42:59.529Z,994.2
2022-12-29T05:44:15.839Z,994.2
2022-12-29T05:45:32.111Z,994.2
2022-12-29T05:46:47.430Z,994.2
2022-12-29T05:48:03.711Z,994.2
2022-12-29T05:49:20.000Z,994.2
2022-12-29T05:50:36.297Z,994.2
2022-12-29T05:51:52.606Z,994.3
2022-12-29T05:53:08.889Z,994.3
2022-12-29T05:54:25.179Z,994.3
2022-12-29T05:55:41.483Z,994.3
2022-12-29T05:56:57.780Z,994.3
2022-12-29T05:58:14.070Z,994.3
2022-12-29T05:59:30.359Z,994.3
2022-12-29T06:00:46.652Z,994.2
2022-12-29T06:02:02.940Z,994.2
2022-12-29T06:03:18.255Z,994.1
2022-12-29T06:04:34.560Z,994.2
2022-12-29T06:05:50.841Z,994.2
2022-12-29T06:07:07.131Z,994.2
2022-12-29T06:08:23.435Z,994.2
2022-12-29T06:09:39.721Z,994.2
2022-12-29T06:10:56.015Z,994.1
2022-12-29T06:12:12.319Z,994.1
2022-12-29T06:13:28.623Z,994.1
2022-12-29T06:14:44.916Z,994
2022-12-29T06:16:01.193Z,994
2022-12-29T06:17:17.498Z,994.1
2022-12-29T06:18:33.783Z,994.1
2022-12-29T06:19:49.084Z,994.1
2022-12-29T06:21:05.391Z,994.1
2022-12-29T06:22:21.702Z,994.1
2022-12-29T06:23:37.971Z,994.1
2022-12-29T06:24:54.283Z,994.1
2022-12-29T06:26:10.564Z,994.1
2022-12-29T06:27:26.859Z,994.1
2022-12-29T06:28:43.147Z,994.1
2022-12-29T06:29:59.463Z,994.1
2022-12-29T06:31:15.732Z,994.1
2022-12-29T06:32:32.042Z,994.1
2022-12-29T06:33:48.334Z,994.1
2022-12-29T06:35:04.638Z,994
2022-12-29T06:36:19.934Z,994.1
2022-12-29T06:37:36.241Z,994.1
2022-12-29T06:38:52.512Z,994.1
2022-12-29T06:40:08.812Z,994.1
2022-12-29T06:41:25.107Z,994.2
2022-12-29T06:42:41.397Z,994.1
2022-12-29T06:43:57.701Z,994.1
2022-12-29T06:45:13.988Z,994.1
2022-12-29T06:46:30.285Z,994.1
2022-12-29T06:47:46.575Z,994.1
2022-12-29T06:49:02.868Z,994.1
2022-12-29T06:50:19.152Z,994.1
2022-12-29T06:51:35.399Z,994
2022-12-29T06:52:50.670Z,993.9
2022-12-29T06:54:06.899Z,993.8
2022-12-29T06:55:23.155Z,993.9
2022-12-29T06:56:39.384Z,993.8
2022-12-29T06:57:55.628Z,993.8
2022-12-29T06:59:11.868Z,993.8
2022-12-29T07:00:28.106Z,993.7
2022-12-29T07:01:44.337Z,993.7
2022-12-29T07:03:00.578Z,993.7
2022-12-29T07:04:16.830Z,993.7
2022-12-29T07:05:33.053Z,993.7
2022-12-29T07:06:49.311Z,993.7
2022-12-29T07:08:05.543Z,993.7
2022-12-29T07:09:20.786Z,993.6
2022-12-29T07:10:37.040Z,993.5
2022-12-29T07:11:53.270Z,993.4
2022-12-29T07:13:09.509Z,993.5
2022-12-29T07:14:25.756Z,993.4
2022-12-29T07:15:41.989Z,993.5
2022-12-29T07:16:57.248Z,993.4
2022-12-29T07:18:13.515Z,993.5
2022-12-29T07:19:29.740Z,993.6
2022-12-29T07:20:45.992Z,993.6
2022-12-29T07:22:02.220Z,993.7
2022-12-29T07:23:18.454Z,993.8
2022-12-29T07:24:34.682Z,993.8
2022-12-29T07:25:50.922Z,993.8
2022-12-29T07:27:07.166Z,993.8
2022-12-29T07:28:23.407Z,993.9
2022-12-29T07:29:39.643Z,993.9
2022-12-29T07:30:55.894Z,993.8
2022-12-29T07:32:12.127Z,993.9
2022-12-29T07:33:27.389Z,993.8
2022-12-29T07:34:43.625Z,993.9
2022-12-29T07:35:59.870Z,993.8
2022-12-29T07:37:16.098Z,993.9
2022-12-29T07:38:32.336Z,993.8
2022-12-29T07:39:48.588Z,993.8
2022-12-29T07:41:04.827Z,993.9
2022-12-29T07:42:21.054Z,993.9
2022-12-29T07:43:37.291Z,993.8
2022-12-29T07:44:53.540Z,993.8
2022-12-29T07:46:09.791Z,993.8
2022-12-29T07:47:26.030Z,993.8
2022-12-29T07:48:42.245Z,993.9
2022-12-29T07:49:57.508Z,993.9
2022-12-29T07:51:13.744Z,993.9
2022-12-29T07:52:29.983Z,993.9
2022-12-29T07:53:46.233Z,994
2022-12-29T07:55:02.463Z,994
2022-12-29T07:56:18.724Z,994
2022-12-29T07:57:34.943Z,994
2022-12-29T07:58:51.191Z,994.1
2022-12-29T08:00:07.421Z,994.1
2022-12-29T08:01:23.681Z,994.1
2022-12-29T08:02:39.914Z,994.1
2022-12-29T08:03:56.138Z,994.2
2022-12-29T08:05:12.401Z,994.2
2022-12-29T08:06:27.657Z,994.2
2022-12-29T08:07:43.884Z,994.2
2022-12-29T08:09:00.130Z,994.1
2022-12-29T08:10:16.368Z,994.1
2022-12-29T08:11:32.620Z,994.2
2022-12-29T08:12:48.845Z,994.1
2022-12-29T08:14:05.096Z,994.1
2022-12-29T08:15:21.327Z,994.1
2022-12-29T08:16:37.567Z,994.2
2022-12-29T08:17:53.790Z,994.2
2022-12-29T08:19:10.038Z,994.2
2022-12-29T08:20:26.276Z,994.2
2022-12-29T08:21:42.523Z,994.2
2022-12-29T08:22:58.884Z,994.2
2022-12-29T08:24:15.122Z,994.1
2022-12-29T08:25:31.368Z,994.2
2022-12-29T08:26:47.606Z,994.1
2022-12-29T08:28:03.831Z,994.1
2022-12-29T08:29:20.082Z,994
2022-12-29T08:30:36.325Z,994
2022-12-29T08:31:52.548Z,994
2022-12-29T08:33:08.795Z,993.9
2022-12-29T08:34:25.045Z,994.1
2022-12-29T08:35:41.290Z,994.1
2022-12-29T08:36:57.519Z,994.1
2022-12-29T08:38:13.748Z,994.1
2022-12-29T08:39:29.021Z,994.1
2022-12-29T08:40:45.254Z,994.2
2022-12-29T08:42:01.510Z,994.1
2022-12-29T08:43:17.733Z,994.1
2022-12-29T08:44:33.979Z,994.1
2022-12-29T08:45:50.219Z,994.1
2022-12-29T08:47:06.442Z,994.1
2022-12-29T08:48:22.682Z,994.1
2022-12-29T08:49:38.953Z,994.1
2022-12-29T08:50:55.159Z,994.1
2022-12-29T08:52:11.414Z,994
2022-12-29T08:53:27.641Z,994
2022-12-29T08:54:43.880Z,994
2022-12-29T08:55:59.153Z,993.9
2022-12-29T08:57:15.374Z,994
2022-12-29T08:58:31.612Z,993.9
2022-12-29T08:59:47.851Z,993.9
2022-12-29T09:01:04.091Z,994
2022-12-29T09:02:20.334Z,993.9
2022-12-29T09:03:36.580Z,993.9
2022-12-29T09:04:52.837Z,993.7
2022-12-29T09:06:09.050Z,993.7
2022-12-29T09:07:25.295Z,993.8
2022-12-29T09:08:41.544Z,993.7
2022-12-29T09:09:57.772Z,993.8
2022-12-29T09:11:14.015Z,993.8
2022-12-29T09:12:29.294Z,993.8
2022-12-29T09:13:45.505Z,993.8
2022-12-29T09:15:01.762Z,993.8
2022-12-29T09:16:18.010Z,993.8
2022-12-29T09:17:34.235Z,993.9
2022-12-29T09:18:50.471Z,993.9
2022-12-29T09:20:06.726Z,993.9
2022-12-29T09:21:22.947Z,993.8
2022-12-29T09:22:39.193Z,993.8
2022-12-29T09:23:55.440Z,993.9
2022-12-29T09:25:11.674Z,993.8
2022-12-29T09:26:27.912Z,993.9
2022-12-29T09:27:44.157Z,993.9
2022-12-29T09:28:59.411Z,993.9
2022-12-29T09:30:15.646Z,993.9
2022-12-29T09:31:31.897Z,994
2022-12-29T09:32:48.137Z,993.9
2022-12-29T09:34:04.378Z,993.9
2022-12-29T09:35:20.609Z,993.8
2022-12-29T09:36:36.849Z,993.8
2022-12-29T09:37:53.100Z,993.9
2022-12-29T09:39:09.330Z,994
2022-12-29T09:40:25.571Z,994
2022-12-29T09:41:41.815Z,993.9
2022-12-29T09:42:58.050Z,993.8
2022-12-29T09:44:14.288Z,993.9
2022-12-29T09:45:29.549Z,993.9
2022-12-29T09:46:45.778Z,993.9
2022-12-29T09:48:02.040Z,994
2022-12-29T09:49:18.264Z,993.9
2022-12-29T09:50:34.497Z,993.9
2022-12-29T09:51:50.744Z,993.9
2022-12-29T09:53:06.986Z,993.9
2022-12-29T09:54:23.225Z,993.9
2022-12-29T09:55:39.468Z,993.9
2022-12-29T09:56:55.692Z,993.9
2022-12-29T09:58:11.932Z,994
2022-12-29T09:59:28.183Z,994
2022-12-29T10:00:44.416Z,994
2022-12-29T10:01:59.662Z,993.9
2022-12-29T10:03:15.903Z,993.9
2022-12-29T10:04:32.156Z,994.1
2022-12-29T10:05:48.378Z,993.9
2022-12-29T10:07:04.630Z,994
2022-12-29T10:08:20.857Z,994
2022-12-29T10:09:37.099Z,993.9
2022-12-29T10:10:53.339Z,993.9
2022-12-29T10:12:09.584Z,993.9
2022-12-29T10:13:25.823Z,993.9
2022-12-29T10:14:42.057Z,993.8
2022-12-29T10:15:58.302Z,993.7
2022-12-29T10:17:14.544Z,993.7
2022-12-29T10:18:29.801Z,993.8
2022-12-29T10:19:46.041Z,993.7
2022-12-29T10:21:02.281Z,993.7
2022-12-29T10:22:18.508Z,993.7
2022-12-29T10:23:34.754Z,993.7
2022-12-29T10:24:51.001Z,993.6
2022-12-29T10:26:07.229Z,993.7
2022-12-29T10:27:23.474Z,993.7
2022-12-29T10:28:39.707Z,993.6
2022-12-29T10:29:55.959Z,993.6
2022-12-29T10:31:12.200Z,993.7
2022-12-29T10:32:28.438Z,993.7
2022-12-29T10:33:44.684Z,993.6
2022-12-29T10:34:59.930Z,993.6
2022-12-29T10:36:16.160Z,993.6
2022-12-29T10:37:32.412Z,993.5
2022-12-29T10:38:48.644Z,993.4
2022-12-29T10:40:04.879Z,993.4
2022-12-29T10:41:21.132Z,993.5
2022-12-29T10:42:37.364Z,993.5
2022-12-29T10:43:53.602Z,993.4
2022-12-29T10:45:09.852Z,993.5
2022-12-29T10:46:26.081Z,993.5
2022-12-29T10:47:42.333Z,993.4
2022-12-29T10:48:58.554Z,993.3
2022-12-29T10:50:14.796Z,993.4
2022-12-29T10:51:30.054Z,993.4
2022-12-29T10:52:46.294Z,993.4
2022-12-29T10:54:02.545Z,993.3
2022-12-29T10:55:18.767Z,993.3
2022-12-29T10:56:35.011Z,993.3
2022-12-29T10:57:51.263Z,993.3
2022-12-29T10:59:07.492Z,993.3
2022-12-29T11:00:23.738Z,993.2
2022-12-29T11:01:39.977Z,993.3
2022-12-29T11:02:56.214Z,993.3
2022-12-29T11:04:12.451Z,993.3
2022-12-29T11:05:28.690Z,993.3
2022-12-29T11:06:44.924Z,993.2
2022-12-29T11:08:00.192Z,993.2
2022-12-29T11:09:16.423Z,993.2
2022-12-29T11:10:32.669Z,993.2
2022-12-29T11:11:48.894Z,993.2
2022-12-29T11:13:05.134Z,993.3
2022-12-29T11:14:21.370Z,993.2
2022-12-29T11:15:37.617Z,993.4
2022-12-29T11:16:53.848Z,993.2
2022-12-29T11:18:10.103Z,993.2
2022-12-29T11:19:26.327Z,993.2
2022-12-29T11:20:42.571Z,993.2
2022-12-29T11:21:58.800Z,993.3
2022-12-29T11:23:15.035Z,993.2
2022-12-29T11:24:30.293Z,993.5
2022-12-29T11:25:46.540Z,993.3
2022-12-29T11:27:02.773Z,993.2
2022-12-29T11:28:19.013Z,993.2
2022-12-29T11:29:35.261Z,993.2
2022-12-29T11:30:51.482Z,993.2
2022-12-29T11:32:06.756Z,993.3
2022-12-29T11:33:22.991Z,993.2
2022-12-29T11:34:39.232Z,993.1
2022-12-29T11:35:55.476Z,993.2
2022-12-29T11:37:11.711Z,993.1
2022-12-29T11:38:27.949Z,993.1
2022-12-29T11:39:44.185Z,993.2
2022-12-29T11:41:00.419Z,993.1
2022-12-29T11:42:16.652Z,993.2
2022-12-29T11:43:32.892Z,993.2
2022-12-29T11:44:49.136Z,993.2
2022-12-29T11:46:05.376Z,993.2
2022-12-29T11:47:21.628Z,993.1
2022-12-29T11:48:37.849Z,993.2
2022-12-29T11:49:53.117Z,993.2
2022-12-29T11:51:09.348Z,993.3
2022-12-29T11:52:25.587Z,993.3
2022-12-29T11:53:41.813Z,993.3
2022-12-29T11:54:58.066Z,993.3
2022-12-29T11:56:14.307Z,993.3
2022-12-29T11:57:30.541Z,993.3
2022-12-29T11:58:46.768Z,993.3
2022-12-29T12:00:03.015Z,993.3
2022-12-29T12:01:19.243Z,993.3
2022-12-29T12:02:35.489Z,993.2
2022-12-29T12:03:51.733Z,993.3
2022-12-29T12:05:07.974Z,993.1
2022-12-29T12:06:23.224Z,993.1
2022-12-29T12:07:39.461Z,993.1
2022-12-29T12:08:55.705Z,993.2
2022-12-29T12:10:11.939Z,993.2
2022-12-29T12:11:28.187Z,993.2
2022-12-29T12:12:44.422Z,993.3
2022-12-29T12:14:00.671Z,993.3
2022-12-29T12:15:16.897Z,993.3
2022-12-29T12:16:33.131Z,993.3
2022-12-29T12:17:49.378Z,993.3
2022-12-29T12:19:05.615Z,993.2
2022-12-29T12:20:21.864Z,993.4
2022-12-29T12:21:38.088Z,993.3
2022-12-29T12:22:53.351Z,993.4
2022-12-29T12:24:09.588Z,993.4
2022-12-29T12:25:25.822Z,993.4
2022-12-29T12:26:42.052Z,993.5
2022-12-29T12:27:58.300Z,993.4
2022-12-29T12:29:14.535Z,993.4
2022-12-29T12:30:30.784Z,993.4
2022-12-29T12:31:47.010Z,993.4
2022-12-29T12:33:03.261Z,993.5
2022-12-29T12:34:19.482Z,993.5
2022-12-29T12:35:35.733Z,993.6
2022-12-29T12:36:51.964Z,993.5
2022-12-29T12:38:08.213Z,993.4
2022-12-29T12:39:23.462Z,993.5
2022-12-29T12:40:39.692Z,993.4
2022-12-29T12:41:55.927Z,993.4
2022-12-29T12:43:12.178Z,993.5
2022-12-29T12:44:28.408Z,993.4
2022-12-29T12:45:44.659Z,993.4
2022-12-29T12:47:00.889Z,993.4
2022-12-29T12:48:17.131Z,993.4
2022-12-29T12:49:33.367Z,993.4
2022-12-29T12:50:49.596Z,993.4
2022-12-29T12:52:05.843Z,993.5
2022-12-29T12:53:22.074Z,993.5
2022-12-29T12:54:38.327Z,993.6
2022-12-29T12:55:53.566Z,993.5
2022-12-29T12:57:09.809Z,993.5
2022-12-29T12:58:26.060Z,993.5
2022-12-29T12:59:42.282Z,993.5
2022-12-29T13:00:58.525Z,993.5
2022-12-29T13:02:14.763Z,993.4
2022-12-29T13:03:31.017Z,993.4
2022-12-29T13:04:47.242Z,993.4
2022-12-29T13:06:03.485Z,993.4
2022-12-29T13:07:19.731Z,993.4
2022-12-29T13:08:35.965Z,993.4
2022-12-29T13:09:52.206Z,993.5
2022-12-29T13:11:08.440Z,993.5
2022-12-29T13:12:23.687Z,993.5
2022-12-29T13:13:39.936Z,993.6
2022-12-29T13:14:56.169Z,993.5
2022-12-29T13:16:12.414Z,993.5
2022-12-29T13:17:28.647Z,993.5
2022-12-29T13:18:44.883Z,993.6
2022-12-29T13:20:01.122Z,993.6
2022-12-29T13:21:17.364Z,993.7
2022-12-29T13:22:33.597Z,993.6
2022-12-29T13:23:49.850Z,993.6
2022-12-29T13:25:06.084Z,993.6
2022-12-29T13:26:22.321Z,993.6
2022-12-29T13:27:38.561Z,993.5
2022-12-29T13:28:53.810Z,993.5
2022-12-29T13:30:10.057Z,993.5
2022-12-29T13:31:26.302Z,993.5
2022-12-29T13:32:42.526Z,993.5
2022-12-29T13:33:58.774Z,993.5
2022-12-29T13:35:15.011Z,993.6
2022-12-29T13:36:31.246Z,993.7
2022-12-29T13:37:47.487Z,993.7
2022-12-29T13:39:03.731Z,993.7
2022-12-29T13:40:19.955Z,993.7
2022-12-29T13:41:36.209Z,993.7
2022-12-29T13:42:52.434Z,993.7
2022-12-29T13:44:08.695Z,993.8
2022-12-29T13:45:23.938Z,993.8
2022-12-29T13:46:40.186Z,993.7
2022-12-29T13:47:56.418Z,993.6
2022-12-29T13:49:12.646Z,993.7
2022-12-29T13:50:28.903Z,993.7
2022-12-29T13:51:45.134Z,993.7
2022-12-29T13:53:01.358Z,993.7
2022-12-29T13:54:17.612Z,993.6
2022-12-29T13:55:33.846Z,993.7
2022-12-29T13:56:50.073Z,993.6
2022-12-29T13:58:06.323Z,993.6
2022-12-29T13:59:22.557Z,993.6
2022-12-29T14:00:38.800Z,993.5
2022-12-29T14:01:54.062Z,993.6
2022-12-29T14:03:10.285Z,993.5
2022-12-29T14:04:26.525Z,993.6
2022-12-29T14:05:42.785Z,993.7
2022-12-29T14:06:59.031Z,993.7
2022-12-29T14:08:15.250Z,993.8
2022-12-29T14:09:31.499Z,993.8
2022-12-29T14:10:47.735Z,993.9
2022-12-29T14:12:03.970Z,993.9
2022-12-29T14:13:20.195Z,994
2022-12-29T14:14:36.438Z,994
2022-12-29T14:15:52.689Z,994.1
2022-12-29T14:17:08.912Z,994.2
2022-12-29T14:18:24.183Z,994.1
2022-12-29T14:19:40.421Z,994.1
2022-12-29T14:20:56.659Z,994.1
2022-12-29T14:22:12.890Z,994.1
2022-12-29T14:23:29.133Z,994.1
2022-12-29T14:24:45.381Z,994
2022-12-29T14:26:01.609Z,994.1
2022-12-29T14:27:17.842Z,994.1
2022-12-29T14:28:34.087Z,994.1
2022-12-29T14:29:50.324Z,994.1
2022-12-29T14:31:06.570Z,994.1
2022-12-29T14:32:22.810Z,994.2
2022-12-29T14:33:39.043Z,994.2
2022-12-29T14:34:54.308Z,994.2
2022-12-29T14:36:10.549Z,994.2
2022-12-29T14:37:26.776Z,994.3
2022-12-29T14:38:43.013Z,994.3
2022-12-29T14:39:59.260Z,994.3
2022-12-29T14:41:15.485Z,994.3
2022-12-29T14:42:31.732Z,994.2
2022-12-29T14:43:47.970Z,994.3
2022-12-29T14:45:04.216Z,994.3
2022-12-29T14:46:20.441Z,994.3
2022-12-29T14:47:36.699Z,994.3
2022-12-29T14:48:52.942Z,994.3
2022-12-29T14:50:09.160Z,994.3
2022-12-29T14:51:24.428Z,994.3
2022-12-29T14:52:40.657Z,994.3
2022-12-29T14:53:56.908Z,994.3
2022-12-29T14:55:13.148Z,994.3
2022-12-29T14:56:29.380Z,994.3
2022-12-29T14:57:45.618Z,994.4
2022-12-29T14:59:01.862Z,994.4
2022-12-29T15:00:18.105Z,994.5
2022-12-29T15:01:34.327Z,994.4
2022-12-29T15:02:50.592Z,994.4
2022-12-29T15:04:06.831Z,994.4
2022-12-29T15:05:23.061Z,994.4
2022-12-29T15:06:39.295Z,994.4
2022-12-29T15:07:54.539Z,994.4
2022-12-29T15:09:10.776Z,994.4
2022-12-29T15:10:27.031Z,994.5
2022-12-29T15:11:43.254Z,994.5
2022-12-29T15:12:59.496Z,994.5
2022-12-29T15:14:15.752Z,994.5
2022-12-29T15:15:31.999Z,994.5
2022-12-29T15:16:48.228Z,994.6
2022-12-29T15:18:04.471Z,994.6
2022-12-29T15:19:20.694Z,994.6
2022-12-29T15:20:36.944Z,994.7
2022-12-29T15:21:53.192Z,994.7
2022-12-29T15:23:09.415Z,994.7
2022-12-29T15:24:24.682Z,994.7
2022-12-29T15:25:40.909Z,994.7
2022-12-29T15:26:57.152Z,994.7
2022-12-29T15:28:13.415Z,994.7
2022-12-29T15:29:29.643Z,994.8
2022-12-29T15:30:45.878Z,994.8
2022-12-29T15:32:02.117Z,994.8
2022-12-29T15:33:18.354Z,994.8
2022-12-29T15:34:34.585Z,994.8
2022-12-29T15:35:50.888Z,994.9
2022-12-29T15:37:07.187Z,994.9
2022-12-29T15:38:23.472Z,994.9
2022-12-29T15:39:39.707Z,994.9
2022-12-29T15:40:54.973Z,994.9
2022-12-29T15:42:11.256Z,994.9
2022-12-29T15:43:27.543Z,995
2022-12-29T15:44:43.798Z,995
2022-12-29T15:46:00.059Z,995
2022-12-29T15:47:15.304Z,995
2022-12-29T15:48:31.546Z,995
2022-12-29T15:49:47.789Z,995.1
2022-12-29T15:51:04.068Z,995
2022-12-29T15:52:20.361Z,995.1
2022-12-29T15:53:36.669Z,995.1
2022-12-29T15:54:52.953Z,995.2
2022-12-29T15:56:09.259Z,995.2
2022-12-29T15:57:25.550Z,995.1
2022-12-29T15:58:41.833Z,995.2
2022-12-29T15:59:58.125Z,995.3
2022-12-29T16:01:14.432Z,995.3
2022-12-29T16:02:30.721Z,995.3
2022-12-29T16:03:46.039Z,995.3
2022-12-29T16:05:02.329Z,995.3
2022-12-29T16:06:18.608Z,995.3
2022-12-29T16:07:34.903Z,995.3
2022-12-29T16:08:51.211Z,995.3
2022-12-29T16:10:07.495Z,995.3
2022-12-29T16:11:23.799Z,995.3
2022-12-29T16:12:40.083Z,995.4
2022-12-29T16:13:56.373Z,995.4
2022-12-29T16:15:12.667Z,995.5
2022-12-29T16:16:28.960Z,995.5
2022-12-29T16:17:45.263Z,995.5
2022-12-29T16:19:01.549Z,995.6
2022-12-29T16:20:16.856Z,995.6
2022-12-29T16:21:33.148Z,995.6
2022-12-29T16:22:49.455Z,995.5
2022-12-29T16:24:05.752Z,995.5
2022-12-29T16:25:22.036Z,995.5
2022-12-29T16:26:38.328Z,995.5
2022-12-29T16:27:54.619Z,995.5
2022-12-29T16:29:10.931Z,995.5